Hamar, North Dakota
Current Conditions -  °F | °C
As of 7:15 PM on Monday 26 Jan 2015 (Local Time) from KDVL Reporting Station
Overcast Overcast  
Wind Chill: 29°   Ceiling: 11000
Heat Index: 34°   Visibility: 10mi
Dew Point: 28°   Wind: 6mph
Humidity: 81%   Direction: 270°W
Pressure: 29.94"   Gusts: NA
Location:  47.7742°N, 98.5041°W
Report Text: KDVL 270115Z AUTO 27005KT 10SM OVC110 01/M02 A2994 RMK AO1
Loading
Personal Weather Stations






























Interactive Weather Map New forecast layout! Learn more

10-Day Weather Forecast

Advertisements
Track Severe Weather on mobile